Wood Mountain, Canada
Current Conditions -  °F | °C
As of 4:53 AM on Sunday 23 Nov 2014 (Local Time) from KGGW Reporting Station
Overcast Overcast  
Wind Chill: 14°   Ceiling: 2900
Heat Index: 29°   Visibility: 10mi
Dew Point: 20°   Wind: 28mph
Humidity: 69%   Direction: 320°NW
Pressure: 29.59"   Gusts: 43mph
Location:  49.37°N, 106.38°W
Report Text: KGGW 231053Z AUTO 32024G37KT 10SM BKN029 OVC035 M02/M07 A2959 RMK AO2 PK WND 30040/1042 SLP039 T10171067
Loading
Personal Weather Stations






























Interactive Weather Map New forecast layout! Learn more

10-Day Weather Forecast

Advertisements
Track Severe Weather on mobile